Terminal Aerodrome Forecast
Issued by NWS Medford, OR

Home | Current Version | Previous Version | Text Only | Print | Product List | Glossary On
Versions: 1 2 3 4 5 6 7 8 9 10 11 12 13 14 15 16
198
FTUS46 KMFR 010542
TAFMFR
TAF
KMFR 010542Z 0106/0206 34005KT P6SM BKN050
     FM011000 00000KT P6SM OVC040
     FM011900 VRB03KT P6SM SCT045
     FM012200 30008KT P6SM SKC
     FM020400 VRB03KT P6SM SCT040=

USA.gov is the U.S. government's official web portal to all federal, state and local government web resources and services.